Pagina principală
METAR-TAF:

Aeroporturi :

București-Băneasa, România

Aeroportul Internațional București Băneasa - Aurel Vlaicu

Latitudine: 44-30N, longitudine: 026-08E, elevație: 90 m

Observații meteo curente

Raportul a fost făcut în urmă cu 36 de minute, la 16:00 UTC
Vânt 6 kt de la Nord-est, variabil între Nord și Est
Temperatură 31°C
Umiditate 38%
Presiune 1015 hPa
Vizibilitate de 10 km sau mai mult
nu există nori sub 1.500 m și nici cumulonimbus

METAR: LRBS 241600Z 04006KT 360V080 CAVOK 31/15 Q1015 NOSIG

Ora: 19:36 (16:36 UTC)

Prognoză

Raportul a fost făcut în urmă cu 5 ore și 36 de minute, la 11:00 UTC
Prognoză valabilă de la 24 ora 12 UTC la 25 ora 12 UTC
Vânt 4 kt din direcții variabile
Vizibilitate de 10 km sau mai mult
nu există nori sub 1.500 m și nici cumulonimbus

TAF: LRBS 241100Z 2412/2512 VRB04KT CAVOK

METAR-TAF

Observații și prognoze meteo pentru peste 4.000 de aeroporturi (rapoarte METAR și TAF).

Stațiile disponibile sunt reprezentate pe hartă prin puncte galbene și roșii.

Țineți indicatorul mouse-ului pe punctul dorit pentru a vedea denumirea stației.

Apoi, faceți clic pentru a vedea observațiile și prognozele meteorologice.

Pentru a schimba harta: Pentru mărire, faceți clic pe butoanele verzi cu cruce neagră; pentru micșorare, pe butonul verde cu o liniuță; pentru hărți învecinate, pe săgețile verzi.


METAR-TAF: